Time;durP1;ratioP1;P1;durP2;ratioP2;P2;SDS_P1;SDS_P2;PMS_P1;PMS_P2;Temp;Humidity;BMP_temperature;BMP_pressure;BME280_temperature;BME280_humidity;BME280_pressure;Samples;Min_cycle;Max_cycle;Signal;HPM_P1;HPM_P2
2023/02/23 00:01:21;;;;;;;68.65;43.35;;;7.30;99.90;;;;;;5002103;28;20509;-80
2023/02/23 00:03:48;;;;;;;75.10;47.03;;;7.40;99.90;;;;;;5006685;28;20127;-76
2023/02/23 00:06:17;;;;;;;70.45;44.63;;;7.40;99.90;;;;;;4992834;28;20080;-75
2023/02/23 00:08:46;;;;;;;66.22;45.63;;;7.50;99.90;;;;;;5005622;28;20034;-75
2023/02/23 00:11:15;;;;;;;65.43;43.00;;;7.50;99.90;;;;;;5022430;28;20029;-74
2023/02/23 00:13:45;;;;;;;69.63;44.65;;;7.60;99.90;;;;;;4985183;28;20056;-76
2023/02/23 00:16:17;;;;;;;69.88;43.97;;;7.70;99.90;;;;;;5008815;28;20041;-73
2023/02/23 00:18:52;;;;;;;64.65;44.70;;;7.70;99.90;;;;;;5004730;28;20156;-76
2023/02/23 00:21:28;;;;;;;67.53;46.55;;;7.80;99.90;;;;;;5006911;28;20041;-78
2023/02/23 00:23:58;;;;;;;66.45;44.95;;;7.80;99.90;;;;;;5004661;28;20049;-78
2023/02/23 00:26:30;;;;;;;75.45;49.92;;;7.80;99.90;;;;;;5023272;28;20055;-76
2023/02/23 00:28:57;;;;;;;74.40;48.80;;;7.80;99.90;;;;;;5030302;28;20036;-77
2023/02/23 00:31:25;;;;;;;72.45;47.03;;;7.90;99.90;;;;;;5005778;28;20037;-76
2023/02/23 00:33:54;;;;;;;73.32;48.22;;;7.90;99.90;;;;;;5023126;28;20136;-74
2023/02/23 00:36:23;;;;;;;72.15;46.95;;;7.90;99.90;;;;;;5027200;28;20041;-76
2023/02/23 00:38:55;;;;;;;76.85;49.83;;;8.10;99.90;;;;;;5001941;28;20502;-75
2023/02/23 00:41:29;;;;;;;81.65;51.67;;;8.00;99.90;;;;;;5006243;28;20094;-75
2023/02/23 00:43:58;;;;;;;77.97;49.33;;;8.00;99.90;;;;;;5001255;28;20515;-74
2023/02/23 00:46:28;;;;;;;82.50;49.97;;;8.00;99.90;;;;;;5006248;28;20076;-75
2023/02/23 00:48:57;;;;;;;85.55;54.03;;;8.00;99.90;;;;;;4996036;28;20045;-74
2023/02/23 00:51:26;;;;;;;87.30;55.15;;;8.10;99.90;;;;;;5022948;28;20723;-75
2023/02/23 00:53:54;;;;;;;89.75;54.55;;;8.10;99.90;;;;;;5006494;28;20881;-74
2023/02/23 00:56:21;;;;;;;88.70;56.22;;;8.10;99.90;;;;;;5008988;28;20041;-74
2023/02/23 00:58:47;;;;;;;84.88;56.63;;;8.10;99.90;;;;;;5012608;28;20065;-76
2023/02/23 01:01:16;;;;;;;90.95;56.55;;;8.20;99.90;;;;;;4995261;28;20037;-75
2023/02/23 01:03:43;;;;;;;81.90;55.53;;;8.20;99.90;;;;;;5007479;28;20053;-76
2023/02/23 01:06:13;;;;;;;87.82;56.83;;;8.20;99.90;;;;;;5022982;28;20712;-77
2023/02/23 01:08:47;;;;;;;93.63;60.65;;;8.20;99.90;;;;;;5008162;28;20069;-77
2023/02/23 01:11:21;;;;;;;96.40;59.25;;;8.30;99.90;;;;;;5016574;28;20041;-73
2023/02/23 01:13:50;;;;;;;86.70;57.22;;;8.20;99.90;;;;;;5000622;28;20141;-74
2023/02/23 01:16:20;;;;;;;97.10;61.72;;;8.30;99.90;;;;;;5001090;28;20041;-74
2023/02/23 01:18:47;;;;;;;93.93;63.08;;;8.30;99.90;;;;;;5011147;28;20136;-73
2023/02/23 01:21:16;;;;;;;95.68;61.65;;;8.30;99.90;;;;;;5009145;28;20036;-77
2023/02/23 01:23:43;;;;;;;98.10;62.80;;;8.40;99.90;;;;;;4991312;28;20037;-73
2023/02/23 01:26:19;;;;;;;98.65;63.97;;;8.40;99.90;;;;;;5013838;28;20528;-75
2023/02/23 01:28:50;;;;;;;102.65;66.07;;;8.40;99.90;;;;;;5007092;28;20198;-74
2023/02/23 01:31:18;;;;;;;100.25;65.63;;;8.40;99.90;;;;;;5019792;28;20049;-76
2023/02/23 01:33:45;;;;;;;108.43;69.20;;;8.40;99.90;;;;;;5011108;28;20040;-74
2023/02/23 01:36:12;;;;;;;110.78;69.18;;;8.50;99.90;;;;;;5012336;28;20048;-76
2023/02/23 01:38:40;;;;;;;105.55;66.13;;;8.40;99.90;;;;;;4997131;28;20052;-78
2023/02/23 01:41:07;;;;;;;103.35;66.03;;;8.40;99.90;;;;;;5007905;28;20052;-78
2023/02/23 01:43:35;;;;;;;113.68;68.10;;;8.40;99.90;;;;;;5004196;28;20053;-75
2023/02/23 01:46:02;;;;;;;111.13;68.25;;;8.40;99.90;;;;;;4982009;28;20050;-75
2023/02/23 01:48:38;;;;;;;107.53;67.75;;;8.40;99.90;;;;;;5006494;28;20068;-78
2023/02/23 01:51:12;;;;;;;115.75;71.43;;;8.40;99.90;;;;;;5008728;28;20033;-73
2023/02/23 01:53:43;;;;;;;115.15;68.88;;;8.40;99.90;;;;;;5007515;28;20042;-75
2023/02/23 01:56:20;;;;;;;113.85;71.45;;;8.40;99.90;;;;;;5012537;28;20045;-78
2023/02/23 01:58:51;;;;;;;;;;;8.40;99.90;;;;;;5007554;28;20056;-77
2023/02/23 02:01:18;;;;;;;115.60;70.13;;;8.40;99.90;;;;;;5005976;28;21065;-74
2023/02/23 02:03:55;;;;;;;123.35;73.97;;;8.40;99.90;;;;;;5008393;28;20057;-76
2023/02/23 02:06:27;;;;;;;116.45;72.47;;;8.40;99.90;;;;;;5008854;28;20103;-76
2023/02/23 02:08:58;;;;;;;119.70;74.90;;;8.40;99.90;;;;;;5011637;28;20061;-78
2023/02/23 02:11:35;;;;;;;125.22;77.95;;;8.20;99.90;;;;;;5013828;28;20336;-75
2023/02/23 02:14:11;;;;;;;129.98;75.40;;;8.20;99.90;;;;;;5004013;28;20045;-74
2023/02/23 02:17:24;;;;;;;129.00;77.97;;;8.30;99.90;;;;;;5006667;28;20045;-76
2023/02/23 02:20:32;;;;;;;126.97;78.90;;;8.20;99.90;;;;;;4977396;28;20769;-76
2023/02/23 02:23:22;;;;;;;131.75;79.03;;;8.30;99.90;;;;;;5009870;28;20037;-76
2023/02/23 02:26:00;;;;;;;131.45;80.72;;;8.30;99.90;;;;;;5011021;28;20046;-74
2023/02/23 02:29:04;;;;;;;133.30;80.30;;;8.40;99.90;;;;;;4998223;28;20326;-77
2023/02/23 02:31:51;;;;;;;139.80;83.70;;;8.40;99.90;;;;;;5000918;28;20068;-74
2023/02/23 02:35:11;;;;;;;135.98;81.70;;;8.50;99.90;;;;;;5002480;28;20042;-75
2023/02/23 02:38:02;;;;;;;128.93;82.57;;;8.50;99.90;;;;;;5003968;28;20049;-74
2023/02/23 02:40:52;;;;;;;136.93;82.25;;;8.50;99.90;;;;;;5007150;28;22303;-77
2023/02/23 02:43:39;;;;;;;141.85;86.10;;;8.50;99.90;;;;;;4986038;28;20222;-76
2023/02/23 02:46:16;;;;;;;132.48;83.20;;;8.60;99.90;;;;;;4998427;28;20041;-76
2023/02/23 02:48:56;;;;;;;140.13;81.97;;;8.60;99.90;;;;;;4990587;28;20149;-74
2023/02/23 02:51:50;;;;;;;134.75;84.50;;;8.70;99.90;;;;;;5003562;28;20046;-74
2023/02/23 02:54:22;;;;;;;132.40;82.47;;;8.70;99.90;;;;;;5002060;28;20052;-75
2023/02/23 02:56:50;;;;;;;134.73;84.32;;;8.70;99.90;;;;;;5009147;28;20684;-75
2023/02/23 04:19:55;;;;;;;273.85;132.48;;;8.70;99.90;;;;;;5020477;28;20056;-77
2023/02/23 04:22:22;;;;;;;270.65;131.07;;;8.70;99.90;;;;;;5009251;28;20269;-78
2023/02/23 04:24:49;;;;;;;286.23;137.18;;;8.70;99.90;;;;;;5002870;28;20381;-78
2023/02/23 04:27:17;;;;;;;287.38;134.93;;;8.60;99.90;;;;;;5010185;28;20047;-76
2023/02/23 04:29:44;;;;;;;289.63;136.48;;;8.70;99.90;;;;;;5003027;28;20518;-76
2023/02/23 04:32:14;;;;;;;286.23;135.45;;;8.60;99.90;;;;;;5002938;28;20038;-76
2023/02/23 04:34:41;;;;;;;285.17;136.90;;;8.60;99.90;;;;;;4959871;28;1062857;-79
2023/02/23 04:37:08;;;;;;;297.73;138.63;;;8.60;99.90;;;;;;5015153;28;20517;-78
2023/02/23 04:39:35;;;;;;;297.88;141.30;;;8.60;99.90;;;;;;4993262;28;20041;-77
2023/02/23 04:42:02;;;;;;;317.73;146.20;;;8.50;99.90;;;;;;5007775;28;20049;-77
2023/02/23 04:44:29;;;;;;;304.23;141.57;;;8.50;99.90;;;;;;4990917;28;20048;-78
2023/02/23 04:46:56;;;;;;;320.08;142.73;;;8.40;99.90;;;;;;5005844;28;20463;-78
2023/02/23 04:49:23;;;;;;;338.85;145.75;;;8.40;99.90;;;;;;4993750;28;20037;-76
2023/02/23 04:51:49;;;;;;;329.00;146.32;;;8.50;99.90;;;;;;5003673;28;20466;-78
2023/02/23 04:54:17;;;;;;;319.85;144.20;;;8.50;99.90;;;;;;5015274;28;20103;-76
2023/02/23 04:56:43;;;;;;;308.77;143.32;;;8.50;99.90;;;;;;4988271;28;20059;-78
2023/02/23 04:59:10;;;;;;;293.90;138.18;;;8.50;99.90;;;;;;5006418;28;20047;-77
2023/02/23 05:01:37;;;;;;;383.08;153.38;;;8.60;99.90;;;;;;5003541;28;20050;-77
2023/02/23 05:04:03;;;;;;;369.33;147.07;;;8.50;99.90;;;;;;5009025;28;20045;-77
2023/02/23 05:06:30;;;;;;;403.48;154.75;;;8.40;99.90;;;;;;5028346;28;20140;-77
2023/02/23 05:08:57;;;;;;;301.73;136.52;;;8.40;99.90;;;;;;4989995;28;20818;-76
2023/02/23 05:11:26;;;;;;;379.45;152.30;;;8.30;99.90;;;;;;4991103;28;20033;-78
2023/02/23 05:13:53;;;;;;;388.30;156.02;;;8.30;99.90;;;;;;5003868;28;20041;-76
2023/02/23 05:16:20;;;;;;;359.00;152.30;;;8.30;99.90;;;;;;5005073;28;20037;-77
2023/02/23 05:18:47;;;;;;;367.38;152.68;;;8.30;99.90;;;;;;5006837;28;20050;-79
2023/02/23 05:21:13;;;;;;;363.95;160.00;;;8.30;99.90;;;;;;5005649;28;20052;-77
2023/02/23 05:23:40;;;;;;;364.77;151.90;;;8.30;99.90;;;;;;4994742;28;20072;-79
2023/02/23 05:26:11;;;;;;;403.13;168.90;;;8.40;99.90;;;;;;4994063;28;20033;-77
2023/02/23 05:28:40;;;;;;;371.73;160.43;;;8.30;99.90;;;;;;5002340;28;20080;-79
2023/02/23 05:31:07;;;;;;;417.80;181.98;;;8.40;99.90;;;;;;5031949;28;20037;-78
2023/02/23 05:33:41;;;;;;;426.42;190.38;;;8.40;99.90;;;;;;5012724;28;20077;-77
2023/02/23 05:36:09;;;;;;;448.38;192.63;;;8.40;99.90;;;;;;5022180;28;20465;-76
2023/02/23 05:38:36;;;;;;;369.48;163.13;;;8.40;99.90;;;;;;5027318;28;20194;-77
2023/02/23 05:41:05;;;;;;;462.42;186.95;;;8.40;99.90;;;;;;5016424;28;20049;-79
2023/02/23 05:43:32;;;;;;;410.55;185.93;;;8.50;99.90;;;;;;5008891;28;20071;-77
2023/02/23 05:46:00;;;;;;;386.08;170.07;;;8.50;99.90;;;;;;4995042;28;20615;-77
2023/02/23 05:48:27;;;;;;;484.00;171.68;;;8.50;99.90;;;;;;5013496;28;20056;-77
2023/02/23 05:50:54;;;;;;;386.75;156.45;;;8.50;99.90;;;;;;5008695;28;20037;-76
2023/02/23 05:53:20;;;;;;;426.33;162.00;;;8.50;99.90;;;;;;5012055;28;20041;-77
2023/02/23 05:55:47;;;;;;;406.95;156.82;;;8.50;99.90;;;;;;5011377;28;20639;-76
2023/02/23 05:58:15;;;;;;;352.05;150.90;;;8.50;99.90;;;;;;5005405;28;20056;-78
2023/02/23 06:00:41;;;;;;;352.73;151.60;;;8.50;99.90;;;;;;4993839;28;20320;-76
2023/02/23 06:03:08;;;;;;;421.85;169.63;;;8.50;99.90;;;;;;4988299;28;20040;-78
2023/02/23 06:05:35;;;;;;;402.33;156.75;;;8.40;99.90;;;;;;4997059;28;20073;-77
2023/02/23 06:08:01;;;;;;;406.60;160.52;;;8.30;99.90;;;;;;4995072;28;20068;-76
2023/02/23 06:10:28;;;;;;;372.25;152.75;;;8.40;99.90;;;;;;5010312;28;20206;-77
2023/02/23 06:12:54;;;;;;;388.73;160.27;;;8.40;99.90;;;;;;5006859;28;20076;-78
2023/02/23 06:15:21;;;;;;;452.58;172.77;;;8.30;99.90;;;;;;4992855;28;20037;-76
2023/02/23 06:17:48;;;;;;;407.02;163.50;;;8.30;99.90;;;;;;4991048;28;20041;-76
2023/02/23 06:20:14;;;;;;;487.42;175.57;;;8.30;99.90;;;;;;5014474;28;20437;-79
2023/02/23 06:22:41;;;;;;;406.52;161.15;;;8.30;99.90;;;;;;5006365;28;20057;-77
2023/02/23 06:25:11;;;;;;;466.63;176.68;;;8.40;99.90;;;;;;5015548;28;20041;-78
2023/02/23 06:27:39;;;;;;;473.38;182.48;;;8.40;99.90;;;;;;4998048;28;20060;-78
2023/02/23 06:30:06;;;;;;;436.85;174.40;;;8.40;99.90;;;;;;5012010;28;20128;-76
2023/02/23 06:32:33;;;;;;;426.85;170.55;;;8.50;99.90;;;;;;5029871;28;20214;-77
2023/02/23 06:35:02;;;;;;;418.10;168.35;;;8.40;99.90;;;;;;5006285;28;20398;-77
2023/02/23 06:37:29;;;;;;;443.42;165.35;;;8.40;99.90;;;;;;5013359;28;20040;-77
2023/02/23 06:39:56;;;;;;;432.33;168.82;;;8.40;99.90;;;;;;4996237;28;20468;-78
2023/02/23 06:42:22;;;;;;;526.20;191.65;;;8.40;99.90;;;;;;5028764;28;20037;-77
2023/02/23 06:44:49;;;;;;;550.15;196.52;;;8.40;99.90;;;;;;5002991;28;20038;-78
2023/02/23 06:47:16;;;;;;;466.08;185.52;;;8.50;99.90;;;;;;5023423;28;20131;-78
2023/02/23 06:49:43;;;;;;;427.27;167.48;;;8.50;99.90;;;;;;5011245;28;20046;-77
2023/02/23 06:52:14;;;;;;;470.00;178.15;;;8.50;99.90;;;;;;4995278;28;20064;-79
2023/02/23 06:54:41;;;;;;;435.52;171.63;;;8.50;99.90;;;;;;5003523;28;20049;-77
2023/02/23 06:57:08;;;;;;;428.83;176.60;;;8.50;99.90;;;;;;5033294;28;20045;-77
2023/02/23 06:59:35;;;;;;;471.33;181.00;;;8.40;99.90;;;;;;5015175;28;20053;-78
2023/02/23 07:02:05;;;;;;;472.30;180.43;;;8.40;99.90;;;;;;4997214;28;20073;-77
2023/02/23 07:04:32;;;;;;;483.85;180.48;;;8.40;99.90;;;;;;5009438;28;20049;-79
2023/02/23 07:06:59;;;;;;;502.98;191.23;;;8.40;99.90;;;;;;5009854;28;20477;-79
2023/02/23 07:09:26;;;;;;;496.80;185.25;;;8.40;99.90;;;;;;4998229;28;20049;-78
2023/02/23 07:11:55;;;;;;;477.95;184.80;;;8.40;99.90;;;;;;5012511;28;20071;-79
2023/02/23 07:14:22;;;;;;;488.40;181.88;;;8.40;99.90;;;;;;5010283;28;20080;-76
2023/02/23 07:16:53;;;;;;;473.48;182.02;;;8.40;99.90;;;;;;5005962;28;20046;-78
2023/02/23 07:19:20;;;;;;;532.97;194.38;;;8.40;99.90;;;;;;4998930;28;20040;-78
2023/02/23 07:21:46;;;;;;;466.08;182.05;;;8.50;99.90;;;;;;5014321;28;20052;-77
2023/02/23 07:24:13;;;;;;;481.15;180.48;;;8.50;99.90;;;;;;5028659;28;20037;-78
2023/02/23 07:26:42;;;;;;;455.25;178.60;;;8.50;99.90;;;;;;5002958;28;20033;-77
2023/02/23 07:29:11;;;;;;;468.90;183.35;;;8.40;99.90;;;;;;4998139;28;20410;-77
2023/02/23 07:31:38;;;;;;;502.90;181.13;;;8.40;99.90;;;;;;4994237;28;20194;-81
2023/02/23 07:34:06;;;;;;;487.08;184.98;;;8.50;99.90;;;;;;5014614;28;20147;-78
2023/02/23 07:36:33;;;;;;;482.75;182.35;;;8.50;99.90;;;;;;5003918;28;20042;-80
2023/02/23 07:38:59;;;;;;;501.55;192.82;;;8.50;99.90;;;;;;4989588;28;20037;-78
2023/02/23 07:41:26;;;;;;;510.75;190.32;;;8.40;99.90;;;;;;5007517;28;20583;-80
2023/02/23 07:43:53;;;;;;;513.80;194.60;;;8.40;99.90;;;;;;5005578;28;20069;-78
2023/02/23 07:46:19;;;;;;;534.40;198.07;;;8.50;99.90;;;;;;5013440;28;20078;-80
2023/02/23 07:48:46;;;;;;;500.20;193.77;;;8.50;99.90;;;;;;5005750;28;20052;-79
2023/02/23 07:51:15;;;;;;;498.52;199.27;;;8.50;99.90;;;;;;5009585;28;20040;-79
2023/02/23 07:53:45;;;;;;;476.85;194.18;;;8.60;99.90;;;;;;4987161;28;20063;-78
2023/02/23 07:56:12;;;;;;;538.63;200.40;;;8.60;99.90;;;;;;5032620;28;20139;-77
2023/02/23 07:58:41;;;;;;;529.88;199.52;;;8.60;99.90;;;;;;5006110;28;20053;-80
2023/02/23 08:01:11;;;;;;;472.67;192.75;;;8.70;99.90;;;;;;5017092;28;20045;-77
2023/02/23 08:03:38;;;;;;;421.67;179.05;;;8.80;99.90;;;;;;5010790;28;20131;-78
2023/02/23 08:06:05;;;;;;;445.20;185.55;;;8.80;99.90;;;;;;5002059;28;20131;-79
2023/02/23 08:08:34;;;;;;;499.55;192.43;;;8.70;99.90;;;;;;5010046;28;20052;-79
2023/02/23 08:11:02;;;;;;;464.05;187.52;;;8.70;99.90;;;;;;5011623;28;20048;-77
2023/02/23 08:13:30;;;;;;;490.17;194.05;;;8.70;99.90;;;;;;5011214;28;20076;-76
2023/02/23 08:15:58;;;;;;;425.13;180.60;;;8.80;99.90;;;;;;5009366;28;20863;-77
2023/02/23 08:18:26;;;;;;;444.63;182.90;;;8.80;99.90;;;;;;5007897;28;20116;-78
2023/02/23 08:21:00;;;;;;;358.95;168.38;;;8.90;99.90;;;;;;5014946;28;20530;-78
2023/02/23 08:23:31;;;;;;;408.60;174.20;;;8.90;99.90;;;;;;5014356;28;20052;-81
2023/02/23 08:26:00;;;;;;;397.08;173.43;;;8.80;99.90;;;;;;5011917;28;20051;-79
2023/02/23 08:28:27;;;;;;;348.67;169.10;;;8.80;99.90;;;;;;5011399;28;20561;-78
2023/02/23 08:30:54;;;;;;;356.52;168.00;;;8.90;99.90;;;;;;4990003;28;20964;-76
2023/02/23 08:33:21;;;;;;;320.30;157.88;;;8.90;99.90;;;;;;5009849;28;20049;-79
2023/02/23 08:35:48;;;;;;;359.17;168.52;;;9.00;99.90;;;;;;5009965;28;20132;-78
2023/02/23 08:38:15;;;;;;;299.60;154.00;;;9.10;99.90;;;;;;4998305;28;20120;-77
2023/02/23 08:40:42;;;;;;;285.75;145.05;;;9.10;99.90;;;;;;5012585;28;20052;-77
2023/02/23 08:43:09;;;;;;;279.15;147.35;;;9.10;99.90;;;;;;4997937;28;20597;-78
2023/02/23 08:45:37;;;;;;;262.05;144.77;;;9.20;99.90;;;;;;5010731;28;20073;-77
2023/02/23 08:48:05;;;;;;;265.15;142.15;;;9.30;99.90;;;;;;4988624;28;20563;-78
2023/02/23 08:50:32;;;;;;;273.95;144.07;;;9.40;99.90;;;;;;5008102;28;20045;-79
2023/02/23 08:52:58;;;;;;;283.15;147.52;;;9.40;99.90;;;;;;5006494;28;20147;-78
2023/02/23 08:55:25;;;;;;;256.55;140.57;;;9.40;99.90;;;;;;5023951;28;20045;-77
2023/02/23 08:57:52;;;;;;;265.70;144.88;;;9.50;99.90;;;;;;5004147;28;20132;-77
2023/02/23 09:00:19;;;;;;;267.02;142.77;;;9.50;99.90;;;;;;5015108;28;20049;-77
2023/02/23 09:02:47;;;;;;;250.65;137.63;;;9.50;99.90;;;;;;4994091;28;20091;-79
2023/02/23 09:05:14;;;;;;;264.80;139.48;;;9.50;99.90;;;;;;5005962;28;20041;-77
2023/02/23 09:07:45;;;;;;;268.58;145.20;;;9.50;99.90;;;;;;5007553;28;20049;-77
2023/02/23 09:10:14;;;;;;;240.32;134.75;;;9.60;99.90;;;;;;5013610;28;20469;-79
2023/02/23 09:12:41;;;;;;;229.98;131.32;;;9.50;99.90;;;;;;5005276;28;20055;-77
2023/02/23 09:15:09;;;;;;;229.25;130.88;;;9.60;99.90;;;;;;4989039;28;20029;-79
2023/02/23 09:17:36;;;;;;;198.40;120.88;;;9.60;99.90;;;;;;5021556;28;20308;-78
2023/02/23 09:20:04;;;;;;;214.75;130.57;;;9.60;99.90;;;;;;5013407;28;20801;-79
2023/02/23 09:22:31;;;;;;;217.23;128.75;;;9.60;99.90;;;;;;5010601;28;20045;-77
2023/02/23 09:24:58;;;;;;;226.57;133.82;;;9.60;99.90;;;;;;5007481;28;20033;-78
2023/02/23 09:27:24;;;;;;;219.73;127.53;;;9.70;99.90;;;;;;5008152;28;20124;-77
2023/02/23 09:29:51;;;;;;;222.60;132.90;;;9.60;99.90;;;;;;5004788;28;20495;-80
2023/02/23 09:32:18;;;;;;;211.35;127.35;;;9.60;99.90;;;;;;5011805;28;20051;-80
2023/02/23 09:34:47;;;;;;;183.30;117.47;;;9.70;99.90;;;;;;5006004;28;20132;-79
2023/02/23 09:37:14;;;;;;;208.68;126.97;;;9.80;99.90;;;;;;5012497;28;20502;-77
2023/02/23 09:39:42;;;;;;;242.10;134.13;;;9.80;99.90;;;;;;5004624;28;20145;-78
2023/02/23 09:42:18;;;;;;;222.38;126.07;;;9.90;99.90;;;;;;4996772;28;20045;-77
2023/02/23 09:45:25;;;;;;;237.85;136.95;;;9.80;99.90;;;;;;5002272;28;20056;-79
2023/02/23 09:48:20;;;;;;;219.65;127.75;;;9.60;99.90;;;;;;4913614;28;20267;-79
2023/02/23 09:50:50;;;;;;;214.98;125.40;;;9.70;99.90;;;;;;5008815;28;20048;-76
2023/02/23 09:53:20;;;;;;;222.07;127.53;;;9.70;99.90;;;;;;4997711;28;20046;-76
2023/02/23 09:55:49;;;;;;;195.80;115.38;;;9.80;99.90;;;;;;5012992;28;20081;-78
2023/02/23 09:58:42;;;;;;;215.10;124.07;;;9.80;99.90;;;;;;5032644;28;20050;-78
2023/02/23 10:01:43;;;;;;;198.38;120.25;;;9.80;99.90;;;;;;5004657;28;20037;-77
2023/02/23 10:04:31;;;;;;;190.82;116.57;;;9.90;99.90;;;;;;5000842;28;20045;-76
2023/02/23 10:07:16;;;;;;;219.18;126.65;;;10.00;99.90;;;;;;5013379;28;20046;-76
2023/02/23 10:10:14;;;;;;;177.80;113.10;;;10.00;99.90;;;;;;5012158;28;20058;-77
2023/02/23 10:12:43;;;;;;;180.82;113.68;;;10.00;99.90;;;;;;5006830;28;20065;-77
2023/02/23 10:15:26;;;;;;;166.88;108.43;;;9.80;99.90;;;;;;5004553;28;20060;-77
2023/02/23 10:18:00;;;;;;;185.18;114.00;;;9.80;99.90;;;;;;4999303;28;20518;-77
2023/02/23 10:20:52;;;;;;;177.30;110.88;;;9.90;99.90;;;;;;5001512;28;20490;-77
2023/02/23 10:23:25;;;;;;;167.30;107.10;;;9.90;99.90;;;;;;5000287;28;20504;-76
2023/02/23 10:25:58;;;;;;;178.38;111.07;;;10.00;99.90;;;;;;5017840;28;20045;-77
2023/02/23 10:28:25;;;;;;;173.50;110.32;;;10.00;99.90;;;;;;5000449;28;20702;-77
2023/02/23 10:30:54;;;;;;;187.43;113.43;;;10.00;99.90;;;;;;5001900;28;20033;-77
2023/02/23 10:33:40;;;;;;;179.68;112.13;;;10.00;99.90;;;;;;5034336;28;20568;-77
2023/02/23 10:36:18;;;;;;;167.77;106.95;;;9.90;99.90;;;;;;5005679;28;20545;-76
2023/02/23 10:38:46;;;;;;;160.52;103.63;;;9.90;99.90;;;;;;5012606;28;20095;-76
2023/02/23 10:41:12;;;;;;;171.02;106.30;;;9.80;99.90;;;;;;5014245;28;20470;-76
2023/02/23 10:43:41;;;;;;;159.77;103.18;;;9.60;99.90;;;;;;4994068;28;20085;-78
2023/02/23 10:46:18;;;;;;;157.15;100.40;;;9.60;99.90;;;;;;5000350;28;20413;-79
2023/02/23 10:48:48;;;;;;;172.27;106.22;;;9.50;99.90;;;;;;5008308;28;20045;-77
2023/02/23 10:51:24;;;;;;;165.90;103.72;;;9.40;99.90;;;;;;4988898;28;20045;-76
2023/02/23 10:53:51;;;;;;;184.10;111.72;;;9.30;99.90;;;;;;5001033;28;20073;-78
2023/02/23 10:56:21;;;;;;;193.70;110.47;;;9.30;99.90;;;;;;5017612;28;20513;-77
2023/02/23 10:58:56;;;;;;;206.27;121.82;;;9.40;99.90;;;;;;4991162;28;20598;-78
2023/02/23 11:01:43;;;;;;;;;;;9.40;99.90;;;;;;5013456;28;20049;-77
2023/02/23 11:04:33;;;;;;;187.25;104.07;;;9.40;99.90;;;;;;4994018;28;19964;-77
2023/02/23 11:07:17;;;;;;;182.40;108.10;;;9.30;99.90;;;;;;5013493;28;20210;-78
2023/02/23 11:09:44;;;;;;;193.35;114.00;;;9.30;99.90;;;;;;4995290;28;20422;-77
2023/02/23 11:12:40;;;;;;;201.38;113.70;;;9.30;99.90;;;;;;5014313;28;20595;-78
2023/02/23 11:15:30;;;;;;;190.95;110.35;;;9.40;99.90;;;;;;4999527;28;20045;-77
2023/02/23 11:18:22;;;;;;;224.57;121.07;;;9.30;99.90;;;;;;4987368;28;20758;-77
2023/02/23 11:20:50;;;;;;;186.27;110.70;;;9.30;99.90;;;;;;5005318;28;20127;-79
2023/02/23 11:23:33;;;;;;;169.82;102.95;;;9.30;99.90;;;;;;5005454;28;20049;-77
2023/02/23 11:26:02;;;;;;;178.65;106.65;;;9.30;99.90;;;;;;5006943;28;20042;-78
2023/02/23 11:28:42;;;;;;;182.88;110.45;;;9.20;99.90;;;;;;4999510;28;20081;-77
2023/02/23 11:31:17;;;;;;;194.65;109.95;;;9.30;99.90;;;;;;5009503;28;20105;-77
2023/02/23 11:33:46;;;;;;;169.32;105.68;;;9.30;99.90;;;;;;5000984;28;20049;-77
2023/02/23 11:36:26;;;;;;;166.82;100.68;;;9.20;99.90;;;;;;4988933;28;20042;-79
2023/02/23 11:39:04;;;;;;;185.70;107.28;;;9.20;99.90;;;;;;5006200;28;20042;-78
2023/02/23 11:41:34;;;;;;;211.40;115.97;;;9.10;99.90;;;;;;5010208;28;20045;-77
2023/02/23 11:44:03;;;;;;;228.77;115.45;;;9.00;99.90;;;;;;5004815;28;20049;-79
2023/02/23 11:46:36;;;;;;;230.82;119.18;;;8.90;99.90;;;;;;5007514;28;20038;-76
2023/02/23 11:49:17;;;;;;;221.40;117.22;;;8.80;99.90;;;;;;5006124;28;20057;-76
2023/02/23 11:51:48;;;;;;;207.07;109.05;;;8.80;99.90;;;;;;4998558;28;20515;-76
2023/02/23 11:54:32;;;;;;;197.00;108.53;;;8.70;99.90;;;;;;5000272;28;20699;-77
2023/02/23 11:57:01;;;;;;;202.32;108.50;;;8.70;99.90;;;;;;5006051;28;21139;-77
2023/02/23 11:59:39;;;;;;;205.63;111.80;;;8.80;99.90;;;;;;5004135;28;20045;-76
2023/02/23 12:02:22;;;;;;;199.20;111.60;;;8.80;99.90;;;;;;5008086;28;20053;-78
2023/02/23 12:04:52;;;;;;;190.23;103.28;;;8.80;99.90;;;;;;5001981;28;20046;-76
2023/02/23 12:07:33;;;;;;;189.57;106.32;;;8.80;99.90;;;;;;5009663;28;20050;-77
2023/02/23 12:10:29;;;;;;;178.43;103.32;;;8.90;99.90;;;;;;4997422;28;20049;-78
2023/02/23 12:13:09;;;;;;;169.98;100.03;;;8.80;99.90;;;;;;5005521;28;20045;-76
2023/02/23 12:15:59;;;;;;;168.30;100.65;;;8.90;99.90;;;;;;5010175;28;20045;-78
2023/02/23 12:18:35;;;;;;;146.65;93.38;;;8.90;99.90;;;;;;5009759;28;20042;-76
2023/02/23 12:21:10;;;;;;;155.00;95.97;;;8.90;99.90;;;;;;5001853;28;20128;-78
2023/02/23 12:23:43;;;;;;;160.43;102.22;;;8.90;99.90;;;;;;5010494;28;20068;-78
2023/02/23 12:26:17;;;;;;;130.98;90.15;;;8.90;99.90;;;;;;5004080;28;20136;-78
2023/02/23 12:28:57;;;;;;;136.57;93.07;;;8.90;99.90;;;;;;5000460;28;20042;-77
2023/02/23 12:31:41;;;;;;;170.15;99.35;;;8.90;99.90;;;;;;4993094;28;20487;-79
2023/02/23 12:34:26;;;;;;;173.38;105.00;;;8.80;99.90;;;;;;5000305;28;20065;-78
2023/02/23 12:37:06;;;;;;;173.52;104.95;;;8.80;99.90;;;;;;5006706;28;20052;-76
2023/02/23 12:39:38;;;;;;;186.40;108.28;;;8.90;99.90;;;;;;5003586;28;20096;-76
2023/02/23 12:42:14;;;;;;;159.75;99.65;;;8.90;99.90;;;;;;5004153;28;20072;-77
2023/02/23 12:44:51;;;;;;;161.75;97.82;;;8.90;99.90;;;;;;5004666;28;20046;-75
2023/02/23 12:47:55;;;;;;;163.48;95.55;;;8.90;99.90;;;;;;5008397;28;20173;-76
2023/02/23 12:50:49;;;;;;;147.40;91.78;;;8.90;99.90;;;;;;4994455;28;20046;-77
2023/02/23 12:53:40;;;;;;;148.10;93.10;;;8.80;99.90;;;;;;5006199;28;20051;-76
2023/02/23 12:56:13;;;;;;;134.95;86.07;;;8.70;99.90;;;;;;4986113;28;20038;-77
2023/02/23 12:58:44;;;;;;;140.43;89.45;;;8.70;99.90;;;;;;5001601;28;20199;-78
2023/02/23 13:01:24;;;;;;;136.55;87.78;;;8.70;99.90;;;;;;5005349;28;20038;-78
2023/02/23 13:03:57;;;;;;;135.85;85.03;;;8.70;99.90;;;;;;4990312;28;20045;-78
2023/02/23 13:07:03;;;;;;;138.93;85.50;;;8.70;99.90;;;;;;5010883;28;20450;-76
2023/02/23 13:09:42;;;;;;;117.97;77.38;;;8.60;99.90;;;;;;4946106;28;20047;-75
2023/02/23 13:12:42;;;;;;;132.25;82.63;;;8.60;99.90;;;;;;4982205;28;20033;-77
2023/02/23 13:15:19;;;;;;;147.85;89.43;;;8.60;99.90;;;;;;5002264;28;20041;-75
2023/02/23 13:17:54;;;;;;;139.07;88.60;;;8.60;99.90;;;;;;4988823;28;20042;-76
2023/02/23 13:20:37;;;;;;;136.48;81.72;;;8.60;99.90;;;;;;4985733;28;20418;-77
2023/02/23 13:23:31;;;;;;;132.85;81.43;;;8.60;99.90;;;;;;4996232;28;20069;-76
2023/02/23 13:26:19;;;;;;;142.40;83.45;;;8.60;99.90;;;;;;4993713;28;20087;-76
2023/02/23 13:28:57;;;;;;;155.82;88.00;;;8.60;99.90;;;;;;5009837;28;20049;-77
2023/02/23 13:31:39;;;;;;;146.40;85.47;;;8.50;99.90;;;;;;5010742;28;20499;-79
2023/02/23 13:34:12;;;;;;;148.60;88.82;;;8.50;99.90;;;;;;5018520;28;20624;-78
2023/02/23 13:36:41;;;;;;;152.60;87.22;;;8.50;99.90;;;;;;5011571;28;20038;-75
2023/02/23 13:39:30;;;;;;;135.05;83.18;;;8.50;99.90;;;;;;5009304;28;20464;-79
2023/02/23 13:41:59;;;;;;;141.73;83.55;;;8.50;99.90;;;;;;5006632;28;20042;-77
2023/02/23 13:44:33;;;;;;;136.95;81.57;;;8.50;99.90;;;;;;4999708;28;20417;-77
2023/02/23 13:47:11;;;;;;;125.10;77.65;;;8.40;99.90;;;;;;5002387;28;20058;-78
2023/02/23 13:49:48;;;;;;;139.75;80.85;;;8.40;99.90;;;;;;5012697;28;20454;-75
2023/02/23 13:52:36;;;;;;;142.40;84.13;;;8.30;99.90;;;;;;5005678;28;20096;-77
2023/02/23 13:55:10;;;;;;;147.50;87.85;;;8.30;99.90;;;;;;5009140;28;20041;-78
2023/02/23 13:57:37;;;;;;;148.93;84.05;;;8.30;99.90;;;;;;5011641;28;20082;-77
2023/02/23 14:00:17;;;;;;;144.82;85.40;;;8.40;99.90;;;;;;4981395;28;20741;-77
2023/02/23 14:02:45;;;;;;;153.90;81.60;;;8.40;99.90;;;;;;5009536;28;20674;-76
2023/02/23 14:05:20;;;;;;;152.75;84.80;;;8.40;99.90;;;;;;5004418;28;20111;-74
2023/02/23 14:07:50;;;;;;;145.90;83.65;;;8.40;99.90;;;;;;5004903;28;20120;-77
2023/02/23 14:10:29;;;;;;;160.73;89.53;;;8.30;99.90;;;;;;4983627;28;20463;-76
2023/02/23 14:13:27;;;;;;;163.85;87.38;;;8.30;99.90;;;;;;5003989;28;20511;-76